Time;durP1;ratioP1;P1;durP2;ratioP2;P2;SDS_P1;SDS_P2;PMS_P1;PMS_P2;Temp;Humidity;BMP_temperature;BMP_pressure;BME280_temperature;BME280_humidity;BME280_pressure;Samples;Min_cycle;Max_cycle;Signal;HPM_P1;HPM_P2
2022/03/12 00:01:39;;;;;;;;;;;6.10;32.00;;;4.23;36.37;102390.22;8298707;28;20004;-77
2022/03/12 00:06:01;;;;;;;;;;;6.10;32.20;;;4.12;36.46;102382.47;8283012;28;20008;-78
2022/03/12 00:10:23;;;;;;;;;;;6.00;32.00;;;4.03;36.31;102376.50;8294934;28;20017;-78
2022/03/12 00:14:48;;;;;;;;;;;5.90;31.20;;;3.67;36.53;102316.22;8298055;28;20400;-78
2022/03/12 00:19:10;;;;;;;;;;;5.90;32.10;;;3.98;36.47;102381.66;8292538;28;20004;-77
2022/03/12 00:23:32;;;;;;;;;;;5.80;31.50;;;3.88;36.48;102370.44;8299458;28;20395;-78
2022/03/12 00:27:54;;;;;;;;;;;5.80;31.80;;;3.85;36.35;102367.88;8298083;28;20027;-77
2022/03/12 00:32:15;;;;;;;;;;;5.70;31.90;;;3.73;36.44;102348.09;8298890;28;19996;-77
2022/03/12 00:36:37;;;;;;;;;;;5.70;32.30;;;3.46;36.56;102310.22;8295755;28;19922;-78
2022/03/12 00:41:04;;;;;;;;;;;5.60;32.00;;;3.67;36.64;102354.97;8297028;28;20004;-78
2022/03/12 00:45:27;;;;;;;;;;;5.50;31.80;;;3.59;36.55;102352.38;8297321;28;20008;-77
2022/03/12 00:49:49;;;;;;;;;;;5.40;31.90;;;3.61;36.46;102365.31;8297696;28;20012;-77
2022/03/12 00:54:11;;;;;;;;;;;5.50;32.00;;;3.49;36.76;102351.53;8291428;28;20020;-78
2022/03/12 00:58:34;;;;;;;;;;;5.50;32.10;;;3.50;36.57;102360.13;8297891;28;20008;-77
2022/03/12 01:02:55;;;;;;;;;;;5.40;32.40;;;3.44;36.86;102348.06;8287438;28;20008;-77
2022/03/12 01:07:17;;;;;;;;;;;5.40;32.40;;;3.50;36.76;102355.81;8297291;28;19997;-77
2022/03/12 01:11:42;;;;;;;;;;;5.40;32.40;;;3.37;36.67;102351.50;8296629;28;20016;-78
2022/03/12 01:16:04;;;;;;;;;;;5.40;32.50;;;3.42;36.50;102357.53;8296669;28;19921;-77
2022/03/12 01:20:26;;;;;;;;;;;5.30;32.20;;;3.37;36.91;102342.91;8295734;28;20008;-77
2022/03/12 01:24:48;;;;;;;;;;;5.30;32.30;;;3.24;36.62;102336.84;8296857;28;20085;-77
2022/03/12 01:29:09;;;;;;;;;;;5.20;32.50;;;3.22;36.51;102343.75;8268871;28;21281;-77
2022/03/12 01:33:31;;;;;;;;;;;5.10;31.90;;;3.04;36.65;102332.53;8282734;28;20023;-77
2022/03/12 01:37:53;;;;;;;;;;;5.10;32.40;;;2.98;36.92;102326.50;8269160;28;20000;-77
2022/03/12 01:42:16;;;;;;;;;;;4.90;32.40;;;2.94;36.67;102323.03;8274303;28;20000;-77
2022/03/12 01:46:42;;;;;;;;;;;4.90;32.40;;;3.01;36.77;102340.28;8281267;28;20000;-77
2022/03/12 01:51:04;;;;;;;;;;;4.70;32.40;;;2.77;36.80;102294.63;8281641;28;20000;-77
2022/03/12 01:55:31;;;;;;;;;;;4.90;32.60;;;2.88;36.96;102323.88;8281531;28;19931;-78
2022/03/12 01:59:53;;;;;;;;;;;4.80;32.40;;;2.77;36.85;102322.16;8293198;28;20012;-78
2022/03/12 02:04:14;;;;;;;;;;;4.80;32.70;;;2.86;36.75;102340.22;8274666;28;20016;-77
2022/03/12 02:08:36;;;;;;;;;;;4.70;32.70;;;2.60;36.94;102302.31;8295788;28;20012;-77
2022/03/12 02:12:57;;;;;;;;;;;4.70;32.70;;;2.72;36.87;102326.44;8293574;28;20016;-77
2022/03/12 02:17:20;;;;;;;;;;;4.60;32.60;;;2.63;37.07;102317.81;8287464;28;19952;-78
2022/03/12 02:21:48;;;;;;;;;;;4.60;32.70;;;2.57;36.54;102322.94;8291610;28;19932;-78
2022/03/12 02:26:10;;;;;;;;;;;4.40;32.60;;;2.47;36.55;102308.28;8295676;28;20020;-78
2022/03/12 02:30:36;;;;;;;;;;;4.50;32.80;;;2.30;36.96;102286.75;8280058;28;19924;-78
2022/03/12 02:34:59;;;;;;;;;;;4.40;32.30;;;2.13;36.59;102274.66;8295294;28;20383;-78
2022/03/12 02:39:21;;;;;;;;;;;4.40;32.70;;;2.35;37.20;102310.81;8294576;28;20008;-78
2022/03/12 02:43:46;;;;;;;;;;;4.30;32.80;;;2.39;36.97;102325.44;8295625;28;20085;-78
2022/03/12 02:48:08;;;;;;;;;;;4.30;32.90;;;2.38;37.08;102321.16;8291815;28;20020;-78
2022/03/12 02:52:32;;;;;;;;;;;4.20;32.80;;;2.27;36.56;102304.75;8293544;28;20293;-78
2022/03/12 02:56:55;;;;;;;;;;;4.30;32.70;;;2.27;36.68;102317.63;8284449;28;20374;-78
2022/03/12 03:01:16;;;;;;;;;;;4.20;32.90;;;2.18;37.09;102315.88;8294306;28;20027;-78
2022/03/12 03:05:47;;;;;;;;;;;4.10;32.90;;;2.08;37.08;102311.53;8284245;28;20075;-78
2022/03/12 03:10:10;;;;;;;;;;;4.10;32.90;;;2.05;36.92;102307.22;8287225;28;20381;-79
2022/03/12 03:14:32;;;;;;;;;;;4.10;32.90;;;1.92;36.81;102295.16;8299901;28;20498;-79
2022/03/12 03:18:54;;;;;;;;;;;4.00;32.90;;;2.02;36.78;102316.66;8285534;28;20478;-79
2022/03/12 03:23:16;;;;;;;;;;;3.90;32.80;;;1.80;37.08;102295.06;8300357;28;20008;-79
2022/03/12 03:27:37;;;;;;;;;;;3.90;32.90;;;1.70;37.14;102281.25;8299737;28;19917;-79
2022/03/12 03:32:02;;;;;;;;;;;3.90;33.00;;;1.74;36.82;102299.31;8300382;28;20012;-77
2022/03/12 03:36:24;;;;;;;;;;;3.80;33.00;;;1.75;36.80;102311.31;8268867;28;19925;-77
2022/03/12 03:40:46;;;;;;;;;;;3.70;33.00;;;1.69;37.08;102302.72;8297357;28;20024;-77
2022/03/12 03:45:08;;;;;;;;;;;3.70;33.00;;;1.62;37.06;102296.66;8286035;28;20008;-77
2022/03/12 03:49:29;;;;;;;;;;;3.70;33.10;;;1.72;36.79;102308.72;8284554;28;20011;-77
2022/03/12 03:53:51;;;;;;;;;;;3.70;33.00;;;1.55;37.18;102284.59;8284334;28;20016;-77
2022/03/12 03:58:14;;;;;;;;;;;3.60;33.10;;;1.63;37.13;102300.97;8298226;28;20027;-77
2022/03/12 04:02:36;;;;;;;;;;;3.70;33.10;;;1.57;36.98;102293.19;8299360;28;20444;-77
2022/03/12 04:06:58;;;;;;;;;;;3.60;33.10;;;1.64;37.05;102305.25;8290477;28;20016;-77
2022/03/12 04:11:24;;;;;;;;;;;3.60;33.20;;;1.54;36.92;102304.34;8298593;28;20013;-76
2022/03/12 04:15:47;;;;;;;;;;;3.60;33.20;;;1.53;37.40;102301.72;8282398;28;20428;-76
2022/03/12 04:20:09;;;;;;;;;;;3.50;33.20;;;1.46;37.19;102298.25;8279317;28;20388;-77
2022/03/12 04:24:31;;;;;;;;;;;3.50;33.20;;;1.49;37.01;102312.88;8298310;28;20028;-77
2022/03/12 04:28:53;;;;;;;;;;;3.50;33.20;;;1.42;37.02;102316.22;8297579;28;20363;-77
2022/03/12 04:33:15;;;;;;;;;;;3.40;33.10;;;1.32;37.16;102297.28;8297638;28;19918;-76
2022/03/12 04:37:37;;;;;;;;;;;3.40;33.20;;;1.33;37.28;102302.44;8284049;28;19927;-77
2022/03/12 04:41:59;;;;;;;;;;;3.30;33.20;;;1.32;37.13;102303.31;8283029;28;19918;-77
2022/03/12 04:46:20;;;;;;;;;;;3.30;33.20;;;1.30;37.38;102306.72;8291364;28;20020;-77
2022/03/12 04:50:42;;;;;;;;;;;3.30;33.30;;;1.28;37.08;102310.97;8290242;28;20000;-77
2022/03/12 04:55:11;;;;;;;;;;;3.30;33.30;;;1.15;37.10;102289.41;8293720;28;20406;-78
2022/03/12 04:59:32;;;;;;;;;;;3.20;33.30;;;1.10;37.28;102280.78;8275704;28;19996;-78
2022/03/12 05:03:54;;;;;;;;;;;3.20;33.30;;;1.06;37.30;102279.91;8276500;28;20015;-78
2022/03/12 05:08:21;;;;;;;;;;;3.10;33.30;;;1.07;37.23;102280.75;8276588;28;20011;-78
2022/03/12 05:12:43;;;;;;;;;;;3.10;33.40;;;0.99;37.41;102284.97;8273226;28;20027;-78
2022/03/12 05:17:06;;;;;;;;;;;3.00;33.40;;;1.13;37.31;102311.69;8270938;28;20391;-78
2022/03/12 05:21:28;;;;;;;;;;;3.10;33.40;;;1.07;37.59;102319.34;8292496;28;20354;-78
2022/03/12 05:25:50;;;;;;;;;;;3.20;33.50;;;1.07;37.22;102312.47;8295498;28;20020;-78
2022/03/12 05:30:12;;;;;;;;;;;3.00;33.40;;;1.04;37.54;102314.19;8295631;28;20012;-79
2022/03/12 05:34:34;;;;;;;;;;;3.00;33.50;;;0.91;37.18;102291.75;8295914;28;20020;-79
2022/03/12 05:38:56;;;;;;;;;;;3.00;33.50;;;0.98;37.24;102301.25;8293125;28;19924;-79
2022/03/12 05:43:18;;;;;;;;;;;3.00;33.50;;;0.98;37.43;102307.25;8291914;28;20013;-80
2022/03/12 05:47:41;;;;;;;;;;;2.90;33.50;;;1.02;37.37;102315.88;8294746;28;20008;-79
2022/03/12 05:52:03;;;;;;;;;;;3.10;33.50;;;1.06;37.49;102328.78;8279867;28;20007;-79
2022/03/12 05:56:25;;;;;;;;;;;3.10;33.60;;;0.95;37.51;102298.66;8295685;28;20394;-79
2022/03/12 06:00:49;;;;;;;;;;;3.10;33.60;;;1.15;37.56;102335.72;8295709;28;20298;-78
2022/03/12 06:05:12;;;;;;;;;;;3.10;33.60;;;1.10;37.26;102333.09;8288404;28;20004;-78
2022/03/12 06:09:34;;;;;;;;;;;3.00;33.50;;;1.04;37.36;102321.91;8295534;28;20028;-78
2022/03/12 06:13:59;;;;;;;;;;;3.10;33.90;;;1.13;37.77;102337.41;8293386;28;19917;-78
2022/03/12 06:18:23;;;;;;;;;;;3.10;33.60;;;1.11;37.19;102336.56;8288607;28;20016;-78
2022/03/12 06:22:45;;;;;;;;;;;3.00;33.60;;;1.00;37.65;102310.72;8301763;28;20024;-78
2022/03/12 06:27:07;;;;;;;;;;;2.90;33.50;;;0.98;37.52;102307.25;8294642;28;20011;-78
2022/03/12 06:31:29;;;;;;;;;;;3.20;33.70;;;1.16;37.52;102342.59;8294505;28;20354;-78
2022/03/12 06:35:51;;;;;;;;;;;3.20;33.70;;;1.18;37.63;102343.47;8262569;28;19922;-78
2022/03/12 06:40:15;;;;;;;;;;;3.20;33.70;;;1.32;38.04;102365.06;8298457;28;19996;-78
2022/03/12 06:44:37;;;;;;;;;;;3.30;33.80;;;1.26;37.75;102339.25;8299032;28;20011;-77
2022/03/12 06:48:58;;;;;;;;;;;3.60;33.90;;;1.41;37.97;102353.13;8300775;28;20012;-77
2022/03/12 06:53:20;;;;;;;;;;;3.60;33.90;;;1.34;37.78;102339.31;8300817;28;20024;-77
2022/03/12 06:57:42;;;;;;;;;;;3.50;33.90;;;1.46;37.45;102343.72;8298243;28;20023;-78
2022/03/12 07:02:04;;;;;;;;;;;3.50;33.90;;;1.61;37.91;102353.28;8292828;28;20397;-78
2022/03/12 07:06:26;;;;;;;;;;;3.60;33.90;;;1.77;37.69;102370.59;8299244;28;20017;-78
2022/03/12 07:10:49;;;;;;;;;;;3.70;33.90;;;1.93;37.90;102363.84;8297771;28;19925;-77
2022/03/12 07:15:14;;;;;;;;;;;3.70;33.90;;;2.01;38.01;102348.44;8298163;28;19921;-78
2022/03/12 07:19:36;;;;;;;;;;;4.00;34.40;;;2.22;37.61;102367.47;8297659;28;19932;-78
2022/03/12 07:23:57;;;;;;;;;;;4.10;34.00;;;2.22;38.17;102346.00;8296166;28;19917;-78
2022/03/12 07:28:20;;;;;;;;;;;4.30;33.80;;;2.43;37.68;102346.09;8280047;28;19925;-79
2022/03/12 07:32:43;;;;;;;;;;;4.40;33.90;;;2.55;37.95;102345.28;8299503;28;19924;-76
2022/03/12 07:37:08;;;;;;;;;;;4.60;33.80;;;2.56;37.82;102334.09;8296199;28;20004;-77
2022/03/12 07:41:31;;;;;;;;;;;4.70;33.80;;;2.69;37.84;102336.75;8298791;28;20377;-76
2022/03/12 07:45:52;;;;;;;;;;;4.80;33.50;;;2.88;37.78;102351.41;8299502;28;20445;-79
2022/03/12 07:50:14;;;;;;;;;;;4.90;33.70;;;3.06;37.98;102369.53;8298897;28;20270;-77
2022/03/12 07:54:36;;;;;;;;;;;4.90;33.00;;;3.19;37.69;102354.09;8299132;28;20024;-77
2022/03/12 07:58:58;;;;;;;;;;;5.20;33.50;;;3.33;37.76;102353.22;8296101;28;20012;-77
2022/03/12 08:03:20;;;;;;;;;;;5.30;33.50;;;3.47;37.83;102345.50;8291875;28;20016;-79
2022/03/12 08:07:41;;;;;;;;;;;5.40;32.90;;;3.71;37.78;102354.97;8307398;28;20016;-79
2022/03/12 08:12:03;;;;;;;;;;;5.60;33.20;;;3.97;37.85;102347.19;8290341;28;20000;-78
2022/03/12 08:16:25;;;;;;;;;;;5.80;32.70;;;4.16;37.87;102337.69;8291552;28;19928;-78
2022/03/12 08:20:47;;;;;;;;;;;6.10;32.60;;;4.48;37.85;102343.59;8298443;28;20012;-76
2022/03/12 08:25:10;;;;;;;;;;;6.40;33.20;;;4.73;37.83;102345.22;8292653;28;20028;-76
2022/03/12 08:29:31;;;;;;;;;;;6.60;32.80;;;4.93;37.58;102337.34;8295017;28;20004;-76
2022/03/12 08:33:53;;;;;;;;;;;6.90;32.70;;;5.20;38.03;102346.69;8266195;28;19924;-77
2022/03/12 08:38:15;;;;;;;;;;;7.10;33.00;;;5.34;37.57;102328.44;8278163;28;19925;-77
2022/03/12 08:42:36;;;;;;;;;;;7.40;33.10;;;5.68;37.57;102347.19;8270381;28;19924;-77
2022/03/12 08:46:58;;;;;;;;;;;7.70;32.70;;;5.98;37.74;102347.81;8297787;28;20015;-77
2022/03/12 08:51:21;;;;;;;;;;;7.90;32.30;;;6.05;37.46;102318.34;8297132;28;20444;-76
2022/03/12 08:55:43;;;;;;;;;;;8.00;32.60;;;6.43;37.91;102345.59;8292447;28;20275;-77
2022/03/12 09:00:07;;;;;;;;;;;8.40;32.20;;;6.64;37.44;102334.94;8278723;28;20400;-76
2022/03/12 09:04:08;;;;;;;;;;;8.60;31.10;;;6.79;37.48;102338.22;8267852;28;19918;-76
2022/03/12 09:08:12;;;;;;;;;;;8.60;31.50;;;6.90;37.73;102331.13;8295247;28;20386;-76
2022/03/12 09:12:26;;;;;;;;;;;9.00;30.80;;;7.19;37.77;102328.13;8448856;27;20361;-77
2022/03/12 09:16:42;;;;;;;;;;;9.30;32.40;;;7.48;37.43;102339.78;8389063;28;20396;-77
2022/03/12 09:20:58;;;;;;;;;;;9.40;31.50;;;7.60;37.40;102330.94;8352832;28;19929;-77
2022/03/12 09:25:03;;;;;;;;;;;9.70;32.70;;;7.84;37.19;102333.09;8318844;28;20009;-77
2022/03/12 09:29:07;;;;;;;;;;;9.90;30.40;;;8.00;36.99;102338.88;8338302;28;20461;-77
2022/03/12 09:33:09;;;;;;;;;;;10.00;28.20;;;7.97;37.05;102306.00;8324247;28;20008;-77
2022/03/12 09:37:11;;;;;;;;;;;10.00;29.60;;;8.37;37.08;102331.25;8321549;28;19917;-77
2022/03/12 09:41:13;;;;;;;;;;;10.20;30.20;;;8.52;37.03;102318.81;8325356;28;20328;-77
2022/03/12 09:45:15;;;;;;;;;;;10.50;29.50;;;8.61;36.90;102316.88;8314048;28;20370;-78
2022/03/12 09:49:16;;;;;;;;;;;10.70;30.40;;;8.64;36.54;102295.09;8323081;28;20354;-80
2022/03/12 09:53:18;;;;;;;;;;;10.80;29.00;;;8.82;36.33;102305.13;8335848;28;20015;-77
2022/03/12 09:57:20;;;;;;;;;;;10.80;30.30;;;8.75;36.10;102268.81;8328012;28;19928;-81
2022/03/12 10:01:21;;;;;;;;;;;11.00;29.50;;;9.15;36.55;102307.84;8339514;28;20031;-77
2022/03/12 10:05:23;;;;;;;;;;;11.10;30.20;;;9.21;36.49;102286.00;8339427;28;20454;-77
2022/03/12 10:09:24;;;;;;;;;;;11.30;30.00;;;9.29;36.59;102265.81;8325583;28;20011;-80
2022/03/12 10:13:25;;;;;;;;;;;11.40;28.90;;;9.53;36.62;102283.44;8321508;28;20007;-77
2022/03/12 10:17:31;;;;;;;;;;;11.50;28.60;;;9.52;36.50;102257.41;8325867;28;19927;-77
2022/03/12 10:21:32;;;;;;;;;;;11.50;28.90;;;9.78;36.53;102271.53;8353437;28;20080;-77
2022/03/12 10:25:34;;;;;;;;;;;11.80;29.70;;;9.99;36.02;102286.59;8362921;28;20004;-77
2022/03/12 10:29:38;;;;;;;;;;;11.90;28.20;;;10.11;36.01;102286.22;8341406;28;20008;-77
2022/03/12 10:33:40;;;;;;;;;;;11.80;27.80;;;10.19;36.30;102272.97;8316854;28;20009;-77
2022/03/12 10:37:41;;;;;;;;;;;12.10;30.20;;;10.31;36.13;102277.00;8331352;28;20373;-77
2022/03/12 10:41:42;;;;;;;;;;;12.20;28.40;;;10.30;36.04;102270.09;8334606;28;20481;-77
2022/03/12 10:45:50;;;;;;;;;;;12.30;29.10;;;10.21;36.29;102221.56;8331319;28;20011;-77
2022/03/12 10:49:57;;;;;;;;;;;12.40;29.50;;;10.39;35.96;102244.53;8325504;28;19988;-77
2022/03/12 10:54:08;;;;;;;;;;;12.50;29.30;;;10.76;35.21;102284.38;8333106;28;20016;-77
2022/03/12 10:58:15;;;;;;;;;;;12.60;28.00;;;10.89;35.54;102275.25;8309902;28;19928;-77
2022/03/12 11:02:16;;;;;;;;;;;12.70;29.60;;;11.05;35.92;102280.84;8307461;28;20370;-77
2022/03/12 11:06:21;;;;;;;;;;;12.60;29.00;;;11.14;36.14;102283.16;8330024;28;20020;-78
2022/03/12 11:10:27;;;;;;;;;;;13.00;30.00;;;11.16;35.75;102254.34;8304263;28;19921;-76
2022/03/12 11:14:31;;;;;;;;;;;13.10;30.20;;;11.40;35.79;102274.47;8321495;28;19928;-76
2022/03/12 11:18:34;;;;;;;;;;;13.30;30.70;;;11.51;35.36;102261.00;8317592;28;19935;-76
2022/03/12 11:22:36;;;;;;;;;;;13.30;29.80;;;11.65;34.97;102257.91;8303908;28;19927;-77
2022/03/12 11:26:49;;;;;;;;;;;13.30;29.20;;;11.75;35.09;102248.84;8321808;28;19933;-77
2022/03/12 11:30:53;;;;;;;;;;;13.60;28.40;;;11.69;35.46;102221.13;8323521;28;20461;-77
2022/03/12 11:35:10;;;;;;;;;;;13.60;26.00;;;11.81;35.00;102235.53;8320579;28;19925;-77
2022/03/12 11:39:18;;;;;;;;;;;13.70;27.60;;;11.88;34.64;102229.19;8298560;28;20175;-79
2022/03/12 11:43:30;;;;;;;;;;;13.80;28.80;;;11.86;35.21;102193.50;8293100;28;19921;-80
2022/03/12 11:47:37;;;;;;;;;;;13.90;28.70;;;12.15;34.95;102234.28;8308167;28;19947;-79
2022/03/12 11:51:38;;;;;;;;;;;13.90;28.30;;;12.04;35.03;102191.97;8303178;28;19925;-80
2022/03/12 11:55:40;;;;;;;;;;;14.00;27.90;;;12.22;34.79;102216.59;8303664;28;19927;-78
2022/03/12 11:59:41;;;;;;;;;;;13.80;28.90;;;12.18;34.55;102179.22;8326554;28;19931;-78
2022/03/12 12:03:43;;;;;;;;;;;14.20;29.30;;;12.44;34.67;102193.03;8329136;28;19927;-78
2022/03/12 12:07:47;;;;;;;;;;;14.20;28.50;;;12.44;34.51;102186.03;8326921;28;19927;-82
2022/03/12 12:11:49;;;;;;;;;;;14.70;28.20;;;12.04;34.33;102103.78;8316074;28;19921;-78
2022/03/12 12:15:51;;;;;;;;;;;14.20;29.20;;;12.69;34.30;102204.28;8314020;28;19929;-79
2022/03/12 12:19:55;;;;;;;;;;;14.40;27.30;;;12.50;34.29;102161.34;8304600;28;19937;-78
2022/03/12 12:23:59;;;;;;;;;;;14.50;27.10;;;12.66;34.33;102169.44;8301775;28;19918;-78
2022/03/12 12:28:12;;;;;;;;;;;14.60;28.60;;;12.83;34.19;102173.09;8304308;28;20719;-79
2022/03/12 12:32:25;;;;;;;;;;;14.60;26.60;;;12.93;34.27;102193.69;8323803;28;19920;-78
2022/03/12 12:36:27;;;;;;;;;;;14.70;28.70;;;12.90;34.03;102176.31;8327856;28;19921;-78
2022/03/12 12:40:42;;;;;;;;;;;14.60;27.30;;;13.02;34.12;102186.28;8307460;28;19929;-79
2022/03/12 12:44:45;;;;;;;;;;;14.50;25.80;;;12.66;33.59;102106.56;8323042;28;19921;-78
2022/03/12 12:48:48;;;;;;;;;;;14.80;28.30;;;12.89;33.64;102130.03;8300651;28;19928;-78
2022/03/12 12:53:09;;;;;;;;;;;14.90;28.00;;;13.07;33.51;102152.00;8314896;28;20408;-79
2022/03/12 12:57:13;;;;;;;;;;;14.90;27.00;;;13.02;33.41;102133.84;8318885;28;19932;-78
2022/03/12 13:01:22;;;;;;;;;;;14.80;28.30;;;13.25;33.76;102161.69;8323362;28;19931;-78
2022/03/12 13:05:48;;;;;;;;;;;15.00;28.50;;;13.30;33.55;102152.81;8308859;28;19921;-78
2022/03/12 13:09:55;;;;;;;;;;;15.00;29.00;;;13.36;33.38;102148.13;8301944;28;20499;-78
2022/03/12 13:14:02;;;;;;;;;;;15.10;29.00;;;13.38;33.72;102140.22;8319573;28;19921;-78
2022/03/12 13:18:16;;;;;;;;;;;14.90;28.70;;;13.31;33.64;102120.41;8298183;28;20305;-78
2022/03/12 13:22:20;;;;;;;;;;;15.20;27.70;;;13.53;33.65;102144.78;8305300;28;19929;-78
2022/03/12 13:26:26;;;;;;;;;;;15.20;29.20;;;13.51;33.50;102123.00;8307391;28;19927;-78
2022/03/12 13:30:27;;;;;;;;;;;15.30;29.60;;;13.60;33.74;102130.44;8323532;28;19927;-78
2022/03/12 13:34:29;;;;;;;;;;;15.30;28.90;;;13.55;33.37;102114.06;8315099;28;19921;-78
2022/03/12 13:38:30;;;;;;;;;;;15.40;28.40;;;13.45;33.32;102082.13;8323036;28;19932;-78
2022/03/12 13:42:32;;;;;;;;;;;15.40;26.90;;;13.55;33.29;102090.44;8319623;28;19927;-78
2022/03/12 13:46:34;;;;;;;;;;;15.40;28.50;;;13.48;33.04;102084.63;8322605;28;19966;-78
2022/03/12 13:50:35;;;;;;;;;;;15.80;28.20;;;13.51;33.15;102065.25;8314450;28;19925;-77
2022/03/12 13:54:36;;;;;;;;;;;15.40;28.20;;;13.69;33.11;102088.03;8287758;28;19921;-78
2022/03/12 13:58:41;;;;;;;;;;;15.30;28.60;;;13.66;32.86;102076.81;8318668;28;19931;-79
2022/03/12 14:02:50;;;;;;;;;;;15.40;28.60;;;13.59;32.82;102068.38;8318222;28;19921;-80
2022/03/12 14:06:52;;;;;;;;;;;15.50;25.90;;;13.37;32.73;102018.66;8323724;28;19931;-78
2022/03/12 14:10:53;;;;;;;;;;;15.40;27.30;;;13.77;32.68;102090.31;8323849;28;20592;-78
2022/03/12 14:15:00;;;;;;;;;;;15.40;27.40;;;13.79;32.73;102088.44;8325093;28;20391;-78
2022/03/12 14:19:03;;;;;;;;;;;15.40;25.80;;;13.69;32.33;102066.16;8323935;28;20427;-78
2022/03/12 14:23:05;;;;;;;;;;;15.40;27.00;;;13.80;32.37;102092.78;8326175;28;19952;-78
2022/03/12 14:27:13;;;;;;;;;;;15.50;27.50;;;13.78;32.38;102083.28;8323569;28;19921;-78
2022/03/12 14:31:14;;;;;;;;;;;15.40;26.20;;;13.77;32.23;102076.31;8326732;28;19927;-78
2022/03/12 14:35:15;;;;;;;;;;;15.40;27.90;;;13.55;32.42;102044.97;8330929;28;19935;-78
2022/03/12 14:39:17;;;;;;;;;;;15.40;27.10;;;13.72;32.11;102085.28;8322509;28;19956;-80
2022/03/12 14:43:26;;;;;;;;;;;15.40;28.00;;;13.71;32.01;102080.06;8306269;28;19928;-79
2022/03/12 14:47:28;;;;;;;;;;;15.40;25.00;;;13.55;31.97;102056.31;8332706;28;19996;-78
2022/03/12 14:51:29;;;;;;;;;;;15.40;27.40;;;13.67;31.69;102086.41;8314766;28;19917;-78
2022/03/12 14:55:31;;;;;;;;;;;15.30;27.50;;;13.61;31.96;102073.53;8315178;28;20023;-78
2022/03/12 14:59:33;;;;;;;;;;;15.30;27.60;;;13.62;31.96;102086.63;8306626;28;20363;-78
2022/03/12 15:03:35;;;;;;;;;;;15.30;27.90;;;13.60;32.03;102077.09;8314928;28;20016;-78
2022/03/12 15:07:43;;;;;;;;;;;15.20;29.20;;;13.57;31.79;102072.00;8318464;28;20024;-78
2022/03/12 15:11:47;;;;;;;;;;;15.20;28.20;;;13.19;31.93;102011.59;8322532;28;19928;-78
2022/03/12 15:15:49;;;;;;;;;;;15.10;27.60;;;13.01;31.82;101980.03;8297602;28;19939;-78
2022/03/12 15:20:02;;;;;;;;;;;15.10;26.90;;;13.47;31.80;102061.06;8325146;28;19928;-78
2022/03/12 15:24:10;;;;;;;;;;;15.10;27.90;;;13.23;31.89;102016.66;8317772;28;20003;-78
2022/03/12 15:28:21;;;;;;;;;;;15.10;28.60;;;13.42;31.87;102049.91;8320585;28;20004;-78
2022/03/12 15:32:22;;;;;;;;;;;15.10;27.50;;;12.98;31.87;101981.94;8329272;28;19923;-78
2022/03/12 15:36:25;;;;;;;;;;;14.80;28.80;;;13.32;31.84;102043.41;8310813;28;19925;-79
2022/03/12 15:40:27;;;;;;;;;;;14.90;28.80;;;13.12;31.93;102018.03;8304756;28;20070;-79
2022/03/12 15:44:28;;;;;;;;;;;15.00;28.80;;;13.20;31.84;102043.00;8307324;28;20004;-79
2022/03/12 15:48:30;;;;;;;;;;;14.70;28.60;;;13.11;32.00;102029.47;8310149;28;19921;-79
2022/03/12 15:52:31;;;;;;;;;;;14.90;28.60;;;12.89;31.86;102004.19;8306558;28;20001;-79
2022/03/12 15:56:33;;;;;;;;;;;14.80;26.90;;;13.17;32.05;102058.88;8311784;28;20016;-79
2022/03/12 16:00:35;;;;;;;;;;;14.80;28.10;;;13.12;31.87;102052.97;8305750;28;19921;-79
2022/03/12 16:04:36;;;;;;;;;;;14.80;27.70;;;12.86;31.94;102025.31;8310086;28;19996;-79
2022/03/12 16:08:39;;;;;;;;;;;14.70;28.20;;;12.97;31.88;102048.44;8291584;28;20008;-79
2022/03/12 16:12:41;;;;;;;;;;;14.60;28.50;;;12.98;32.04;102064.06;8310935;28;20004;-79
2022/03/12 16:16:46;;;;;;;;;;;14.60;27.80;;;12.85;31.91;102036.69;8303760;28;20320;-79
2022/03/12 16:20:56;;;;;;;;;;;14.60;29.00;;;12.93;32.11;102054.72;8310844;28;19933;-79
2022/03/12 16:25:00;;;;;;;;;;;14.50;28.50;;;12.76;32.03;102031.88;8305090;28;19929;-79
2022/03/12 16:29:02;;;;;;;;;;;14.50;28.60;;;12.82;32.22;102044.69;8323592;28;20413;-79
2022/03/12 16:33:03;;;;;;;;;;;14.40;28.10;;;12.76;32.13;102045.81;8318615;28;19968;-79
2022/03/12 16:37:06;;;;;;;;;;;14.40;29.20;;;12.67;32.12;102038.34;8313042;28;19921;-79
2022/03/12 16:41:08;;;;;;;;;;;14.30;29.20;;;12.05;32.23;101945.78;8304476;28;19929;-79
2022/03/12 16:45:15;;;;;;;;;;;14.20;29.30;;;12.40;32.27;102008.94;8322498;28;19924;-79
2022/03/12 16:49:17;;;;;;;;;;;14.20;29.20;;;12.50;32.26;102030.34;8314980;28;19925;-78
2022/03/12 16:53:22;;;;;;;;;;;14.10;29.30;;;12.34;32.09;102025.78;8321667;28;19928;-79
2022/03/12 16:57:24;;;;;;;;;;;14.00;29.30;;;12.37;32.11;102041.34;8323270;28;20440;-79
2022/03/12 17:01:26;;;;;;;;;;;13.90;29.10;;;12.01;31.89;101985.25;8293139;28;19928;-79
2022/03/12 17:05:28;;;;;;;;;;;14.00;29.40;;;12.13;32.08;102037.97;8317027;28;19921;-79
2022/03/12 17:09:30;;;;;;;;;;;13.60;29.00;;;12.00;32.26;102025.44;8324282;28;19920;-79
2022/03/12 17:13:31;;;;;;;;;;;13.70;29.50;;;11.86;31.96;102016.38;8295475;28;19920;-79
2022/03/12 17:17:38;;;;;;;;;;;13.60;29.60;;;11.77;32.26;102023.69;8318202;28;19928;-79
2022/03/12 17:21:41;;;;;;;;;;;13.50;29.60;;;11.77;32.36;102044.63;8320569;28;19928;-91
2022/03/12 17:25:44;;;;;;;;;;;13.30;29.60;;;11.34;32.32;101989.59;8317848;28;20329;-80
2022/03/12 17:29:47;;;;;;;;;;;13.50;29.60;;;11.37;31.82;102012.13;8314693;28;19925;-79
2022/03/12 17:33:49;;;;;;;;;;;13.10;29.60;;;11.37;31.99;102031.31;8321563;28;19928;-79
2022/03/12 17:37:50;;;;;;;;;;;12.90;29.60;;;11.15;32.19;102009.47;8310339;28;19921;-80
2022/03/12 17:41:52;;;;;;;;;;;12.80;29.50;;;11.14;32.12;102028.69;8305527;28;19955;-81
2022/03/12 17:45:54;;;;;;;;;;;12.70;30.10;;;11.02;32.54;102030.84;8298842;28;19931;-79
2022/03/12 17:50:04;;;;;;;;;;;12.60;29.90;;;10.90;32.11;102026.06;8321098;28;19927;-80
2022/03/12 17:54:10;;;;;;;;;;;12.50;29.90;;;10.35;31.90;101971.38;8318970;28;19924;-81
2022/03/12 17:58:13;;;;;;;;;;;12.20;29.90;;;10.57;32.08;102028.94;8296046;28;20309;-81
2022/03/12 18:02:16;;;;;;;;;;;12.00;29.90;;;10.39;32.32;102019.97;8309930;28;19932;-81
2022/03/12 18:06:17;;;;;;;;;;;12.00;29.90;;;10.22;32.44;102024.03;8320242;28;19931;-81
2022/03/12 18:10:22;;;;;;;;;;;11.80;29.90;;;9.91;32.05;101991.06;8320546;28;19920;-81
2022/03/12 18:14:24;;;;;;;;;;;11.60;29.70;;;9.73;32.66;101990.75;8300608;28;20421;-81
2022/03/12 18:18:26;;;;;;;;;;;11.50;29.90;;;9.69;32.33;102017.84;8304580;28;19927;-80
2022/03/12 18:22:27;;;;;;;;;;;11.20;29.90;;;9.60;32.14;102023.34;8314039;28;19932;-81
2022/03/12 18:26:28;;;;;;;;;;;11.20;29.70;;;9.42;32.38;102016.91;8318004;28;19925;-81
2022/03/12 18:30:30;;;;;;;;;;;11.00;30.00;;;9.35;32.52;102014.56;8301839;28;19935;-81
2022/03/12 18:34:31;;;;;;;;;;;10.90;29.70;;;9.16;32.79;101988.16;8303279;28;19925;-80
2022/03/12 18:38:33;;;;;;;;;;;10.90;29.90;;;9.25;32.57;102008.75;8302415;28;19927;-81
2022/03/12 18:42:36;;;;;;;;;;;10.80;29.80;;;9.19;32.42;102012.38;8319152;28;19924;-81
2022/03/12 18:46:38;;;;;;;;;;;10.70;29.60;;;9.04;32.56;101989.34;8299861;28;19921;-80
2022/03/12 18:50:39;;;;;;;;;;;10.80;29.60;;;9.28;32.43;102035.56;8319645;28;19921;-80
2022/03/12 18:54:45;;;;;;;;;;;10.70;30.00;;;9.27;32.95;102031.25;8294557;28;19928;-81
2022/03/12 18:58:47;;;;;;;;;;;10.80;29.80;;;9.18;32.80;102021.09;8315251;28;19925;-80
2022/03/12 19:02:52;;;;;;;;;;;10.50;29.70;;;9.26;32.67;102031.28;8316394;28;19921;-80
2022/03/12 19:06:53;;;;;;;;;;;10.80;29.80;;;8.67;32.52;101934.81;8308737;28;19928;-80
2022/03/12 19:10:54;;;;;;;;;;;10.80;29.60;;;8.99;32.49;101992.09;8315686;28;20260;-81
2022/03/12 19:14:56;;;;;;;;;;;10.80;30.30;;;8.83;32.86;101982.97;8312258;28;19920;-81
2022/03/12 19:18:59;;;;;;;;;;;10.70;30.00;;;9.12;32.85;102034.28;8299008;28;19921;-81